Hansen Hills, California
Current Conditions -  °F | °C
As of 12:51 PM on Thursday 20 Nov 2014 (Local Time) from KVNY Reporting Station
Broken Clouds Broken Clouds  
Wind Chill: 68°   Ceiling: 20000
Heat Index: 68°   Visibility: 10mi
Dew Point: 46°   Wind: 3mph
Humidity: 45%   Direction: 200°SSW
Pressure: 30.03"   Gusts: NA
Location:  34.2561°N, 118.42°W
Report Text: KVNY 202051Z 20003KT 10SM SCT044 BKN200 20/08 A3003 RMK AO2 SLP164 T02000078 58027
Loading
Personal Weather Stations






























Interactive Weather Map New forecast layout! Learn more

10-Day Weather Forecast

Advertisements
Track Severe Weather on mobile